sensor_id;sensor_type;location;lat;lon;timestamp;P1;durP1;ratioP1;P2;durP2;ratioP2
43319;SDS011;28914;48.722;9.332;2023-03-23T00:00:37;3.40;;;2.53;;
43319;SDS011;28914;48.722;9.332;2023-03-23T00:05:56;4.40;;;3.40;;
43319;SDS011;28914;48.722;9.332;2023-03-23T00:11:21;5.70;;;3.00;;
43319;SDS011;28914;48.722;9.332;2023-03-23T00:16:42;4.97;;;2.80;;
43319;SDS011;28914;48.722;9.332;2023-03-23T00:22:03;3.87;;;2.83;;
43319;SDS011;28914;48.722;9.332;2023-03-23T00:27:23;2.90;;;2.27;;
43319;SDS011;28914;48.722;9.332;2023-03-23T00:32:42;3.57;;;2.27;;
43319;SDS011;28914;48.722;9.332;2023-03-23T00:38:02;3.20;;;2.07;;
43319;SDS011;28914;48.722;9.332;2023-03-23T00:43:23;2.87;;;2.60;;
43319;SDS011;28914;48.722;9.332;2023-03-23T00:48:47;2.80;;;2.40;;
43319;SDS011;28914;48.722;9.332;2023-03-23T00:54:09;4.30;;;2.83;;
43319;SDS011;28914;48.722;9.332;2023-03-23T00:59:29;3.57;;;2.30;;
43319;SDS011;28914;48.722;9.332;2023-03-23T01:04:48;3.00;;;2.00;;
43319;SDS011;28914;48.722;9.332;2023-03-23T01:10:11;2.70;;;1.80;;
43319;SDS011;28914;48.722;9.332;2023-03-23T01:15:34;2.47;;;2.07;;
43319;SDS011;28914;48.722;9.332;2023-03-23T01:20:54;3.53;;;2.03;;
43319;SDS011;28914;48.722;9.332;2023-03-23T01:26:14;3.40;;;3.10;;
43319;SDS011;28914;48.722;9.332;2023-03-23T01:31:35;3.20;;;2.60;;
43319;SDS011;28914;48.722;9.332;2023-03-23T01:36:58;3.93;;;2.97;;
43319;SDS011;28914;48.722;9.332;2023-03-23T01:42:17;3.60;;;2.63;;
43319;SDS011;28914;48.722;9.332;2023-03-23T01:47:36;3.67;;;2.50;;
43319;SDS011;28914;48.722;9.332;2023-03-23T01:52:56;2.37;;;2.17;;
43319;SDS011;28914;48.722;9.332;2023-03-23T01:58:21;3.80;;;3.10;;
43319;SDS011;28914;48.722;9.332;2023-03-23T02:03:45;4.20;;;2.80;;
43319;SDS011;28914;48.722;9.332;2023-03-23T02:09:06;3.80;;;3.40;;
43319;SDS011;28914;48.722;9.332;2023-03-23T02:14:26;3.37;;;2.13;;
43319;SDS011;28914;48.722;9.332;2023-03-23T02:20:31;2.73;;;2.13;;
43319;SDS011;28914;48.722;9.332;2023-03-23T02:37:00;4.57;;;2.10;;
43319;SDS011;28914;48.722;9.332;2023-03-23T02:42:23;2.23;;;1.93;;
43319;SDS011;28914;48.722;9.332;2023-03-23T02:47:51;4.70;;;2.83;;
43319;SDS011;28914;48.722;9.332;2023-03-23T02:53:12;3.47;;;2.90;;
43319;SDS011;28914;48.722;9.332;2023-03-23T02:58:34;3.33;;;2.30;;
43319;SDS011;28914;48.722;9.332;2023-03-23T03:03:54;2.60;;;1.90;;
43319;SDS011;28914;48.722;9.332;2023-03-23T03:09:21;2.87;;;2.43;;
43319;SDS011;28914;48.722;9.332;2023-03-23T03:15:06;3.60;;;2.40;;
43319;SDS011;28914;48.722;9.332;2023-03-23T03:20:27;3.50;;;2.27;;
43319;SDS011;28914;48.722;9.332;2023-03-23T03:25:48;4.63;;;2.70;;
43319;SDS011;28914;48.722;9.332;2023-03-23T03:31:09;3.90;;;2.97;;
43319;SDS011;28914;48.722;9.332;2023-03-23T03:36:29;2.63;;;2.43;;
43319;SDS011;28914;48.722;9.332;2023-03-23T03:41:52;3.10;;;1.90;;
43319;SDS011;28914;48.722;9.332;2023-03-23T03:47:13;2.10;;;1.90;;
43319;SDS011;28914;48.722;9.332;2023-03-23T03:52:33;3.50;;;2.20;;
43319;SDS011;28914;48.722;9.332;2023-03-23T03:57:52;2.30;;;2.10;;
43319;SDS011;28914;48.722;9.332;2023-03-23T04:03:13;2.83;;;2.63;;
43319;SDS011;28914;48.722;9.332;2023-03-23T04:08:32;2.23;;;2.00;;
43319;SDS011;28914;48.722;9.332;2023-03-23T04:13:52;2.03;;;1.80;;
43319;SDS011;28914;48.722;9.332;2023-03-23T04:19:11;2.63;;;1.60;;
43319;SDS011;28914;48.722;9.332;2023-03-23T04:24:30;4.27;;;1.87;;
43319;SDS011;28914;48.722;9.332;2023-03-23T04:29:52;2.00;;;1.60;;
43319;SDS011;28914;48.722;9.332;2023-03-23T04:35:12;2.00;;;1.60;;
43319;SDS011;28914;48.722;9.332;2023-03-23T04:40:35;1.97;;;1.40;;
43319;SDS011;28914;48.722;9.332;2023-03-23T04:45:59;2.70;;;1.77;;
43319;SDS011;28914;48.722;9.332;2023-03-23T04:51:19;3.10;;;1.60;;
43319;SDS011;28914;48.722;9.332;2023-03-23T04:56:39;2.27;;;1.50;;
43319;SDS011;28914;48.722;9.332;2023-03-23T05:01:59;2.73;;;2.17;;
43319;SDS011;28914;48.722;9.332;2023-03-23T05:07:18;2.97;;;2.10;;
43319;SDS011;28914;48.722;9.332;2023-03-23T05:12:38;2.60;;;1.70;;
43319;SDS011;28914;48.722;9.332;2023-03-23T05:17:58;3.93;;;1.53;;
43319;SDS011;28914;48.722;9.332;2023-03-23T05:23:17;2.07;;;1.80;;
43319;SDS011;28914;48.722;9.332;2023-03-23T05:28:39;2.30;;;1.93;;
43319;SDS011;28914;48.722;9.332;2023-03-23T05:34:00;3.47;;;2.30;;
43319;SDS011;28914;48.722;9.332;2023-03-23T05:39:19;3.20;;;1.53;;
43319;SDS011;28914;48.722;9.332;2023-03-23T05:44:38;2.93;;;2.20;;
43319;SDS011;28914;48.722;9.332;2023-03-23T05:49:58;2.20;;;1.80;;
43319;SDS011;28914;48.722;9.332;2023-03-23T05:55:17;3.37;;;2.80;;
43319;SDS011;28914;48.722;9.332;2023-03-23T06:00:36;2.70;;;2.20;;
43319;SDS011;28914;48.722;9.332;2023-03-23T06:05:56;2.20;;;1.70;;
43319;SDS011;28914;48.722;9.332;2023-03-23T06:11:15;3.10;;;2.80;;
43319;SDS011;28914;48.722;9.332;2023-03-23T06:16:34;4.70;;;2.90;;
43319;SDS011;28914;48.722;9.332;2023-03-23T06:21:54;2.40;;;2.17;;
43319;SDS011;28914;48.722;9.332;2023-03-23T06:27:14;8.07;;;2.47;;
43319;SDS011;28914;48.722;9.332;2023-03-23T06:32:34;2.80;;;2.30;;
43319;SDS011;28914;48.722;9.332;2023-03-23T06:37:54;2.80;;;2.30;;
43319;SDS011;28914;48.722;9.332;2023-03-23T06:43:13;4.20;;;2.27;;
43319;SDS011;28914;48.722;9.332;2023-03-23T06:48:33;3.27;;;2.60;;
43319;SDS011;28914;48.722;9.332;2023-03-23T06:53:52;2.47;;;1.80;;
43319;SDS011;28914;48.722;9.332;2023-03-23T06:59:11;3.97;;;2.00;;
43319;SDS011;28914;48.722;9.332;2023-03-23T07:04:30;3.17;;;2.40;;
43319;SDS011;28914;48.722;9.332;2023-03-23T07:09:50;2.80;;;2.50;;
43319;SDS011;28914;48.722;9.332;2023-03-23T07:15:10;5.13;;;3.00;;
43319;SDS011;28914;48.722;9.332;2023-03-23T07:20:31;4.03;;;2.73;;
43319;SDS011;28914;48.722;9.332;2023-03-23T07:25:50;5.07;;;3.53;;
43319;SDS011;28914;48.722;9.332;2023-03-23T07:31:10;4.67;;;2.87;;
43319;SDS011;28914;48.722;9.332;2023-03-23T07:36:29;3.50;;;3.10;;
43319;SDS011;28914;48.722;9.332;2023-03-23T07:41:49;3.73;;;3.20;;
43319;SDS011;28914;48.722;9.332;2023-03-23T07:47:08;6.03;;;2.83;;
43319;SDS011;28914;48.722;9.332;2023-03-23T07:52:28;3.37;;;2.20;;
43319;SDS011;28914;48.722;9.332;2023-03-23T07:57:48;2.50;;;1.80;;
43319;SDS011;28914;48.722;9.332;2023-03-23T08:03:08;5.33;;;2.57;;
43319;SDS011;28914;48.722;9.332;2023-03-23T08:08:27;7.90;;;4.70;;
43319;SDS011;28914;48.722;9.332;2023-03-23T08:13:46;6.50;;;5.77;;
43319;SDS011;28914;48.722;9.332;2023-03-23T08:19:05;11.77;;;8.27;;
43319;SDS011;28914;48.722;9.332;2023-03-23T08:24:25;15.27;;;8.20;;
43319;SDS011;28914;48.722;9.332;2023-03-23T08:29:45;8.87;;;6.90;;
43319;SDS011;28914;48.722;9.332;2023-03-23T08:35:04;7.37;;;5.27;;
43319;SDS011;28914;48.722;9.332;2023-03-23T08:40:24;4.20;;;3.47;;
43319;SDS011;28914;48.722;9.332;2023-03-23T08:45:44;2.73;;;2.10;;
43319;SDS011;28914;48.722;9.332;2023-03-23T08:51:06;2.80;;;2.50;;
43319;SDS011;28914;48.722;9.332;2023-03-23T08:56:27;3.20;;;1.47;;
43319;SDS011;28914;48.722;9.332;2023-03-23T09:01:46;3.43;;;1.43;;
43319;SDS011;28914;48.722;9.332;2023-03-23T09:07:06;1.40;;;1.20;;
43319;SDS011;28914;48.722;9.332;2023-03-23T09:12:26;2.13;;;1.40;;
43319;SDS011;28914;48.722;9.332;2023-03-23T09:17:45;3.70;;;2.30;;
43319;SDS011;28914;48.722;9.332;2023-03-23T09:23:09;5.43;;;1.90;;
43319;SDS011;28914;48.722;9.332;2023-03-23T09:28:29;2.10;;;1.60;;
43319;SDS011;28914;48.722;9.332;2023-03-23T09:33:49;2.60;;;1.50;;
43319;SDS011;28914;48.722;9.332;2023-03-23T09:39:12;2.63;;;1.90;;
43319;SDS011;28914;48.722;9.332;2023-03-23T09:44:36;1.50;;;1.13;;
43319;SDS011;28914;48.722;9.332;2023-03-23T09:50:18;1.70;;;1.40;;
43319;SDS011;28914;48.722;9.332;2023-03-23T09:55:42;1.57;;;1.20;;
43319;SDS011;28914;48.722;9.332;2023-03-23T10:01:14;1.57;;;1.13;;
43319;SDS011;28914;48.722;9.332;2023-03-23T10:06:39;2.73;;;1.80;;
43319;SDS011;28914;48.722;9.332;2023-03-23T10:12:04;2.30;;;1.40;;
43319;SDS011;28914;48.722;9.332;2023-03-23T10:17:33;1.33;;;1.10;;
43319;SDS011;28914;48.722;9.332;2023-03-23T10:23:13;2.50;;;1.83;;
43319;SDS011;28914;48.722;9.332;2023-03-23T10:28:54;1.50;;;1.20;;
43319;SDS011;28914;48.722;9.332;2023-03-23T10:34:56;2.00;;;1.33;;
43319;SDS011;28914;48.722;9.332;2023-03-23T10:40:16;1.70;;;1.27;;
43319;SDS011;28914;48.722;9.332;2023-03-23T10:45:40;2.43;;;1.03;;
43319;SDS011;28914;48.722;9.332;2023-03-23T10:51:03;1.90;;;1.27;;
43319;SDS011;28914;48.722;9.332;2023-03-23T10:56:35;1.70;;;1.47;;
43319;SDS011;28914;48.722;9.332;2023-03-23T11:01:56;2.03;;;1.10;;
43319;SDS011;28914;48.722;9.332;2023-03-23T11:07:20;1.30;;;1.07;;
43319;SDS011;28914;48.722;9.332;2023-03-23T11:12:46;1.70;;;1.00;;
43319;SDS011;28914;48.722;9.332;2023-03-23T11:18:08;2.27;;;1.73;;
43319;SDS011;28914;48.722;9.332;2023-03-23T11:23:32;1.57;;;1.10;;
43319;SDS011;28914;48.722;9.332;2023-03-23T11:28:56;3.30;;;1.33;;
43319;SDS011;28914;48.722;9.332;2023-03-23T11:34:25;2.30;;;1.40;;
43319;SDS011;28914;48.722;9.332;2023-03-23T11:45:38;1.63;;;1.30;;
43319;SDS011;28914;48.722;9.332;2023-03-23T11:51:11;1.93;;;1.00;;
43319;SDS011;28914;48.722;9.332;2023-03-23T11:56:37;1.57;;;1.40;;
43319;SDS011;28914;48.722;9.332;2023-03-23T12:02:01;2.20;;;1.60;;
43319;SDS011;28914;48.722;9.332;2023-03-23T12:07:37;1.57;;;1.40;;
43319;SDS011;28914;48.722;9.332;2023-03-23T12:13:24;1.63;;;1.33;;
43319;SDS011;28914;48.722;9.332;2023-03-23T12:36:28;1.70;;;1.33;;
43319;SDS011;28914;48.722;9.332;2023-03-23T12:41:52;1.87;;;1.27;;
43319;SDS011;28914;48.722;9.332;2023-03-23T12:47:31;1.80;;;1.40;;
43319;SDS011;28914;48.722;9.332;2023-03-23T12:58:33;1.93;;;1.53;;
43319;SDS011;28914;48.722;9.332;2023-03-23T13:03:59;11.40;;;8.77;;
43319;SDS011;28914;48.722;9.332;2023-03-23T13:09:31;4.43;;;3.17;;
43319;SDS011;28914;48.722;9.332;2023-03-23T13:20:51;2.63;;;1.47;;
43319;SDS011;28914;48.722;9.332;2023-03-23T13:26:18;3.00;;;1.77;;
43319;SDS011;28914;48.722;9.332;2023-03-23T13:31:41;2.63;;;1.77;;
43319;SDS011;28914;48.722;9.332;2023-03-23T13:37:02;1.33;;;1.17;;
43319;SDS011;28914;48.722;9.332;2023-03-23T13:42:25;1.93;;;1.50;;
43319;SDS011;28914;48.722;9.332;2023-03-23T13:47:48;2.00;;;1.50;;
43319;SDS011;28914;48.722;9.332;2023-03-23T13:53:14;1.53;;;1.20;;
43319;SDS011;28914;48.722;9.332;2023-03-23T13:58:44;2.23;;;1.70;;
43319;SDS011;28914;48.722;9.332;2023-03-23T14:04:16;1.60;;;1.50;;
43319;SDS011;28914;48.722;9.332;2023-03-23T14:09:38;1.27;;;1.00;;
43319;SDS011;28914;48.722;9.332;2023-03-23T14:15:00;1.50;;;1.13;;
43319;SDS011;28914;48.722;9.332;2023-03-23T14:20:26;1.50;;;1.20;;
43319;SDS011;28914;48.722;9.332;2023-03-23T14:25:55;1.83;;;1.50;;
43319;SDS011;28914;48.722;9.332;2023-03-23T14:31:24;2.13;;;1.50;;
43319;SDS011;28914;48.722;9.332;2023-03-23T14:36:45;2.00;;;1.80;;
43319;SDS011;28914;48.722;9.332;2023-03-23T14:42:05;1.80;;;1.70;;
43319;SDS011;28914;48.722;9.332;2023-03-23T14:47:34;2.10;;;1.90;;
43319;SDS011;28914;48.722;9.332;2023-03-23T14:58:47;2.03;;;1.37;;
43319;SDS011;28914;48.722;9.332;2023-03-23T15:04:12;3.63;;;2.17;;
43319;SDS011;28914;48.722;9.332;2023-03-23T15:09:40;2.30;;;1.93;;
43319;SDS011;28914;48.722;9.332;2023-03-23T15:15:03;1.70;;;1.40;;
43319;SDS011;28914;48.722;9.332;2023-03-23T15:20:30;1.63;;;1.20;;
43319;SDS011;28914;48.722;9.332;2023-03-23T15:26:02;3.90;;;2.20;;
43319;SDS011;28914;48.722;9.332;2023-03-23T15:31:25;1.90;;;1.70;;
43319;SDS011;28914;48.722;9.332;2023-03-23T15:36:44;2.07;;;1.83;;
43319;SDS011;28914;48.722;9.332;2023-03-23T15:42:04;3.77;;;2.33;;
43319;SDS011;28914;48.722;9.332;2023-03-23T15:47:33;7.30;;;1.80;;
43319;SDS011;28914;48.722;9.332;2023-03-23T15:53:14;2.57;;;2.07;;
43319;SDS011;28914;48.722;9.332;2023-03-23T15:58:35;1.60;;;1.37;;
43319;SDS011;28914;48.722;9.332;2023-03-23T16:04:05;1.87;;;1.67;;
43319;SDS011;28914;48.722;9.332;2023-03-23T16:09:30;3.30;;;2.40;;
43319;SDS011;28914;48.722;9.332;2023-03-23T16:14:50;2.93;;;1.73;;
43319;SDS011;28914;48.722;9.332;2023-03-23T16:20:13;3.43;;;2.30;;
43319;SDS011;28914;48.722;9.332;2023-03-23T16:25:35;2.20;;;1.70;;
43319;SDS011;28914;48.722;9.332;2023-03-23T16:30:54;2.20;;;1.73;;
43319;SDS011;28914;48.722;9.332;2023-03-23T16:36:14;2.00;;;1.80;;
43319;SDS011;28914;48.722;9.332;2023-03-23T16:41:33;4.83;;;2.57;;
43319;SDS011;28914;48.722;9.332;2023-03-23T16:46:52;3.23;;;2.93;;
43319;SDS011;28914;48.722;9.332;2023-03-23T16:52:11;2.60;;;2.40;;
43319;SDS011;28914;48.722;9.332;2023-03-23T16:57:31;3.13;;;2.00;;
43319;SDS011;28914;48.722;9.332;2023-03-23T17:02:55;2.70;;;2.07;;
43319;SDS011;28914;48.722;9.332;2023-03-23T17:08:16;2.63;;;1.60;;
43319;SDS011;28914;48.722;9.332;2023-03-23T17:13:36;3.37;;;3.17;;
43319;SDS011;28914;48.722;9.332;2023-03-23T17:18:55;2.67;;;2.03;;
43319;SDS011;28914;48.722;9.332;2023-03-23T17:24:14;2.20;;;2.00;;
43319;SDS011;28914;48.722;9.332;2023-03-23T17:29:34;2.00;;;1.80;;
43319;SDS011;28914;48.722;9.332;2023-03-23T17:34:53;2.67;;;2.43;;
43319;SDS011;28914;48.722;9.332;2023-03-23T17:40:13;2.47;;;2.27;;
43319;SDS011;28914;48.722;9.332;2023-03-23T17:45:32;8.30;;;5.57;;
43319;SDS011;28914;48.722;9.332;2023-03-23T17:50:53;7.43;;;5.97;;
43319;SDS011;28914;48.722;9.332;2023-03-23T17:56:15;4.63;;;3.30;;
43319;SDS011;28914;48.722;9.332;2023-03-23T18:01:34;2.93;;;2.40;;
43319;SDS011;28914;48.722;9.332;2023-03-23T18:06:56;3.43;;;3.13;;
43319;SDS011;28914;48.722;9.332;2023-03-23T18:12:16;2.90;;;2.07;;
43319;SDS011;28914;48.722;9.332;2023-03-23T18:17:36;3.67;;;2.40;;
43319;SDS011;28914;48.722;9.332;2023-03-23T18:22:55;3.10;;;1.97;;
43319;SDS011;28914;48.722;9.332;2023-03-23T18:28:14;2.30;;;1.97;;
43319;SDS011;28914;48.722;9.332;2023-03-23T18:33:35;3.43;;;2.40;;
43319;SDS011;28914;48.722;9.332;2023-03-23T18:38:55;2.40;;;1.93;;
43319;SDS011;28914;48.722;9.332;2023-03-23T18:44:15;6.13;;;5.10;;
43319;SDS011;28914;48.722;9.332;2023-03-23T18:49:34;4.23;;;2.70;;
43319;SDS011;28914;48.722;9.332;2023-03-23T18:54:53;2.30;;;1.90;;
43319;SDS011;28914;48.722;9.332;2023-03-23T19:00:13;4.43;;;3.50;;
43319;SDS011;28914;48.722;9.332;2023-03-23T19:05:33;5.00;;;4.60;;
43319;SDS011;28914;48.722;9.332;2023-03-23T19:10:57;4.97;;;3.00;;
43319;SDS011;28914;48.722;9.332;2023-03-23T19:16:19;4.47;;;3.90;;
43319;SDS011;28914;48.722;9.332;2023-03-23T19:21:38;3.67;;;2.87;;
43319;SDS011;28914;48.722;9.332;2023-03-23T19:26:58;2.67;;;2.47;;
43319;SDS011;28914;48.722;9.332;2023-03-23T19:32:17;3.00;;;2.80;;
43319;SDS011;28914;48.722;9.332;2023-03-23T19:37:37;3.30;;;2.60;;
43319;SDS011;28914;48.722;9.332;2023-03-23T19:42:56;2.93;;;2.73;;
43319;SDS011;28914;48.722;9.332;2023-03-23T19:48:16;2.17;;;1.97;;
43319;SDS011;28914;48.722;9.332;2023-03-23T19:53:35;3.13;;;2.83;;
43319;SDS011;28914;48.722;9.332;2023-03-23T19:58:55;3.07;;;2.77;;
43319;SDS011;28914;48.722;9.332;2023-03-23T20:04:14;3.37;;;2.60;;
43319;SDS011;28914;48.722;9.332;2023-03-23T20:09:35;2.10;;;1.90;;
43319;SDS011;28914;48.722;9.332;2023-03-23T20:14:56;2.47;;;2.00;;
43319;SDS011;28914;48.722;9.332;2023-03-23T20:20:16;3.30;;;2.60;;
43319;SDS011;28914;48.722;9.332;2023-03-23T20:25:35;3.70;;;2.77;;
43319;SDS011;28914;48.722;9.332;2023-03-23T20:31:05;1.80;;;1.60;;
43319;SDS011;28914;48.722;9.332;2023-03-23T20:36:33;2.90;;;1.40;;
43319;SDS011;28914;48.722;9.332;2023-03-23T20:41:55;2.93;;;1.40;;
43319;SDS011;28914;48.722;9.332;2023-03-23T20:47:20;3.93;;;1.50;;
43319;SDS011;28914;48.722;9.332;2023-03-23T20:52:39;2.00;;;1.50;;
43319;SDS011;28914;48.722;9.332;2023-03-23T20:57:59;2.13;;;1.83;;
43319;SDS011;28914;48.722;9.332;2023-03-23T21:03:18;3.50;;;2.43;;
43319;SDS011;28914;48.722;9.332;2023-03-23T21:08:38;2.90;;;2.60;;
43319;SDS011;28914;48.722;9.332;2023-03-23T21:13:58;4.10;;;2.57;;
43319;SDS011;28914;48.722;9.332;2023-03-23T21:19:17;3.23;;;2.53;;
43319;SDS011;28914;48.722;9.332;2023-03-23T21:24:37;2.77;;;1.77;;
43319;SDS011;28914;48.722;9.332;2023-03-23T21:29:57;2.30;;;2.00;;
43319;SDS011;28914;48.722;9.332;2023-03-23T21:35:17;2.70;;;2.07;;
43319;SDS011;28914;48.722;9.332;2023-03-23T21:40:36;4.07;;;2.73;;
43319;SDS011;28914;48.722;9.332;2023-03-23T21:45:56;3.13;;;2.70;;
43319;SDS011;28914;48.722;9.332;2023-03-23T21:51:21;3.50;;;2.93;;
43319;SDS011;28914;48.722;9.332;2023-03-23T21:56:42;2.27;;;1.80;;
43319;SDS011;28914;48.722;9.332;2023-03-23T22:02:01;2.20;;;1.87;;
43319;SDS011;28914;48.722;9.332;2023-03-23T22:07:20;2.70;;;2.13;;
43319;SDS011;28914;48.722;9.332;2023-03-23T22:12:41;2.07;;;1.60;;
43319;SDS011;28914;48.722;9.332;2023-03-23T22:18:01;3.90;;;1.63;;
43319;SDS011;28914;48.722;9.332;2023-03-23T22:23:20;4.63;;;2.10;;
43319;SDS011;28914;48.722;9.332;2023-03-23T22:28:39;2.37;;;1.77;;
43319;SDS011;28914;48.722;9.332;2023-03-23T22:33:59;2.03;;;1.83;;
43319;SDS011;28914;48.722;9.332;2023-03-23T22:39:18;2.40;;;1.93;;
43319;SDS011;28914;48.722;9.332;2023-03-23T22:44:38;2.33;;;2.00;;
43319;SDS011;28914;48.722;9.332;2023-03-23T22:49:57;2.90;;;2.00;;
43319;SDS011;28914;48.722;9.332;2023-03-23T22:55:16;2.93;;;2.37;;
43319;SDS011;28914;48.722;9.332;2023-03-23T23:00:39;2.17;;;1.80;;
43319;SDS011;28914;48.722;9.332;2023-03-23T23:06:01;1.97;;;1.60;;
43319;SDS011;28914;48.722;9.332;2023-03-23T23:11:21;2.80;;;2.10;;
43319;SDS011;28914;48.722;9.332;2023-03-23T23:16:41;3.00;;;1.80;;
43319;SDS011;28914;48.722;9.332;2023-03-23T23:22:02;2.67;;;1.60;;
43319;SDS011;28914;48.722;9.332;2023-03-23T23:27:23;2.33;;;1.70;;
43319;SDS011;28914;48.722;9.332;2023-03-23T23:32:42;2.60;;;1.60;;
43319;SDS011;28914;48.722;9.332;2023-03-23T23:38:02;2.73;;;2.13;;
43319;SDS011;28914;48.722;9.332;2023-03-23T23:43:22;3.13;;;1.87;;
43319;SDS011;28914;48.722;9.332;2023-03-23T23:48:42;2.63;;;2.07;;
43319;SDS011;28914;48.722;9.332;2023-03-23T23:54:02;3.23;;;2.03;;
43319;SDS011;28914;48.722;9.332;2023-03-23T23:59:22;3.80;;;3.03;;
